GLO1836 SBBR-SBGL
Flight info
| Callsign | GLO1836 |
|---|---|
| Flight time | 1h 17m |
| Altitude | 37000 |
| Route | GEPMO UZ24 MAVGU |
| Aircraft | B738/M-SDFGIKLORWXY/LB1 |
Departure
| Time | 2026-04-30 00:37 |
|---|---|
| Airport | Presidente Juscelino Kubitschek International Airport (SBBR) |
Arrival
| Time | 2026-04-30 01:55 |
|---|---|
| Airport | Rio Galeão – Tom Jobim International Airport (SBGL) |
| Time | Latitude | Longitude | Altitude | Speed | Heading |
|---|---|---|---|---|---|
| 2026-04-30 00:08 | -15.86855 | -47.91829 | 3368 ft | 0 kts | 356° |
| 2026-04-30 00:28 | -15.86860 | -47.91829 | 3471 ft | 3 kts | 355° |
| 2026-04-30 00:28 | -15.86887 | -47.91827 | 3469 ft | 4 kts | 5° |
| 2026-04-30 00:29 | -15.86904 | -47.91835 | 3468 ft | 3 kts | 58° |
| 2026-04-30 00:29 | -15.86912 | -47.91860 | 3468 ft | 4 kts | 87° |
| 2026-04-30 00:29 | -15.86913 | -47.91876 | 3468 ft | 0 kts | 86° |
| 2026-04-30 00:31 | -15.86913 | -47.91875 | 3468 ft | 0 kts | 86° |
| 2026-04-30 00:31 | -15.86912 | -47.91858 | 3468 ft | 5 kts | 86° |
| 2026-04-30 00:32 | -15.86909 | -47.91804 | 3471 ft | 10 kts | 86° |
| 2026-04-30 00:32 | -15.86903 | -47.91715 | 3471 ft | 15 kts | 86° |
| 2026-04-30 00:32 | -15.86884 | -47.91611 | 3471 ft | 13 kts | 36° |
| 2026-04-30 00:32 | -15.86793 | -47.91610 | 3471 ft | 13 kts | 355° |
| 2026-04-30 00:33 | -15.86704 | -47.91616 | 3471 ft | 13 kts | 356° |
| 2026-04-30 00:33 | -15.86616 | -47.91623 | 3470 ft | 13 kts | 356° |
| 2026-04-30 00:33 | -15.86516 | -47.91632 | 3466 ft | 16 kts | 349° |
| 2026-04-30 00:33 | -15.86483 | -47.91727 | 3466 ft | 15 kts | 263° |
| 2026-04-30 00:34 | -15.86491 | -47.91834 | 3468 ft | 15 kts | 266° |
| 2026-04-30 00:34 | -15.86498 | -47.91938 | 3468 ft | 14 kts | 266° |
| 2026-04-30 00:34 | -15.86504 | -47.92042 | 3467 ft | 15 kts | 265° |
| 2026-04-30 00:34 | -15.86512 | -47.92156 | 3468 ft | 16 kts | 266° |
| 2026-04-30 00:35 | -15.86520 | -47.92278 | 3468 ft | 18 kts | 266° |
| 2026-04-30 00:35 | -15.86527 | -47.92412 | 3467 ft | 19 kts | 265° |
| 2026-04-30 00:35 | -15.86538 | -47.92560 | 3463 ft | 22 kts | 266° |
| 2026-04-30 00:35 | -15.86547 | -47.92708 | 3462 ft | 18 kts | 265° |
| 2026-04-30 00:36 | -15.86478 | -47.92767 | 3460 ft | 13 kts | 359° |
| 2026-04-30 00:36 | -15.86398 | -47.92747 | 3459 ft | 12 kts | 42° |
| 2026-04-30 00:36 | -15.86354 | -47.92674 | 3460 ft | 12 kts | 78° |
| 2026-04-30 00:36 | -15.86346 | -47.92582 | 3461 ft | 28 kts | 86° |
| 2026-04-30 00:37 | -15.86316 | -47.92124 | 3465 ft | 98 kts | 86° |
| 2026-04-30 00:37 | -15.86256 | -47.91199 | 3469 ft | 156 kts | 86° |
| 2026-04-30 00:37 | -15.86177 | -47.89949 | 3824 ft | 180 kts | 86° |
| 2026-04-30 00:37 | -15.86163 | -47.88682 | 4780 ft | 170 kts | 106° |
| 2026-04-30 00:38 | -15.86880 | -47.87756 | 5511 ft | 176 kts | 154° |
| 2026-04-30 00:38 | -15.88180 | -47.87489 | 5841 ft | 207 kts | 171° |
| 2026-04-30 00:38 | -15.89704 | -47.87310 | 6049 ft | 233 kts | 171° |
| 2026-04-30 00:38 | -15.91400 | -47.87088 | 6250 ft | 260 kts | 170° |
| 2026-04-30 00:39 | -15.93261 | -47.86815 | 6734 ft | 276 kts | 169° |
| 2026-04-30 00:39 | -15.95166 | -47.86513 | 7573 ft | 277 kts | 169° |
| 2026-04-30 00:39 | -15.97086 | -47.86192 | 8382 ft | 282 kts | 169° |
| 2026-04-30 00:39 | -15.99027 | -47.85855 | 8892 ft | 282 kts | 169° |
| 2026-04-30 00:40 | -16.00977 | -47.85506 | 9646 ft | 288 kts | 170° |
| 2026-04-30 00:40 | -16.02907 | -47.85017 | 10342 ft | 293 kts | 154° |
| 2026-04-30 00:40 | -16.04638 | -47.83786 | 10628 ft | 315 kts | 141° |
| 2026-04-30 00:40 | -16.06362 | -47.82259 | 10844 ft | 335 kts | 139° |
| 2026-04-30 00:41 | -16.08145 | -47.80625 | 11348 ft | 344 kts | 138° |
| 2026-04-30 00:41 | -16.09952 | -47.78972 | 12000 ft | 348 kts | 138° |
| 2026-04-30 00:41 | -16.11793 | -47.77306 | 12679 ft | 351 kts | 138° |
| 2026-04-30 00:41 | -16.13654 | -47.75638 | 13322 ft | 356 kts | 138° |
| 2026-04-30 00:42 | -16.15551 | -47.73954 | 13929 ft | 361 kts | 138° |
| 2026-04-30 00:42 | -16.17471 | -47.72258 | 14481 ft | 364 kts | 138° |
| 2026-04-30 00:42 | -16.19417 | -47.70545 | 15053 ft | 368 kts | 138° |
| 2026-04-30 00:42 | -16.21384 | -47.68817 | 15611 ft | 372 kts | 138° |
| 2026-04-30 00:43 | -16.23373 | -47.67072 | 16154 ft | 376 kts | 138° |
| 2026-04-30 00:43 | -16.25382 | -47.65308 | 16695 ft | 379 kts | 138° |
| 2026-04-30 00:43 | -16.27381 | -47.63554 | 17218 ft | 383 kts | 138° |
| 2026-04-30 00:43 | -16.29432 | -47.61755 | 17746 ft | 387 kts | 138° |
| 2026-04-30 00:44 | -16.31504 | -47.59936 | 18261 ft | 391 kts | 138° |
| 2026-04-30 00:44 | -16.33595 | -47.58099 | 18715 ft | 395 kts | 138° |
| 2026-04-30 00:44 | -16.35700 | -47.56251 | 19172 ft | 398 kts | 138° |
| 2026-04-30 00:44 | -16.37823 | -47.54386 | 19636 ft | 400 kts | 138° |
| 2026-04-30 00:45 | -16.39957 | -47.52511 | 20094 ft | 403 kts | 138° |
| 2026-04-30 00:45 | -16.42111 | -47.50617 | 20537 ft | 406 kts | 138° |
| 2026-04-30 00:45 | -16.44278 | -47.48712 | 20993 ft | 410 kts | 138° |
| 2026-04-30 00:45 | -16.46465 | -47.46788 | 21447 ft | 412 kts | 138° |
| 2026-04-30 00:46 | -16.48662 | -47.44855 | 21887 ft | 415 kts | 138° |
| 2026-04-30 00:46 | -16.50881 | -47.42902 | 22323 ft | 419 kts | 138° |
| 2026-04-30 00:46 | -16.53111 | -47.40938 | 22751 ft | 422 kts | 138° |
| 2026-04-30 00:46 | -16.55361 | -47.38957 | 23180 ft | 425 kts | 139° |
| 2026-04-30 00:47 | -16.57622 | -47.36965 | 23601 ft | 427 kts | 139° |
| 2026-04-30 00:47 | -16.59872 | -47.34982 | 23957 ft | 430 kts | 139° |
| 2026-04-30 00:47 | -16.62188 | -47.32940 | 24327 ft | 432 kts | 139° |
| 2026-04-30 00:47 | -16.64457 | -47.30939 | 24703 ft | 433 kts | 139° |
| 2026-04-30 00:48 | -16.66792 | -47.28879 | 25072 ft | 435 kts | 139° |
| 2026-04-30 00:48 | -16.69080 | -47.26860 | 25421 ft | 437 kts | 139° |
| 2026-04-30 00:48 | -16.71409 | -47.24803 | 25774 ft | 439 kts | 139° |
| 2026-04-30 00:48 | -16.73749 | -47.22737 | 26121 ft | 441 kts | 139° |
| 2026-04-30 00:49 | -16.76100 | -47.20660 | 26461 ft | 443 kts | 139° |
| 2026-04-30 00:49 | -16.78463 | -47.18571 | 26782 ft | 446 kts | 139° |
| 2026-04-30 00:49 | -16.80838 | -47.16472 | 27111 ft | 448 kts | 139° |
| 2026-04-30 00:49 | -16.83223 | -47.14363 | 27438 ft | 450 kts | 139° |
| 2026-04-30 00:50 | -16.85617 | -47.12242 | 27760 ft | 452 kts | 139° |
| 2026-04-30 00:50 | -16.87944 | -47.10075 | 28061 ft | 454 kts | 137° |
| 2026-04-30 00:50 | -16.90260 | -47.07827 | 28351 ft | 456 kts | 136° |
| 2026-04-30 00:50 | -16.92608 | -47.05517 | 28668 ft | 458 kts | 136° |
| 2026-04-30 00:51 | -16.94898 | -47.03265 | 28970 ft | 460 kts | 136° |
| 2026-04-30 00:51 | -16.97235 | -47.00979 | 29246 ft | 462 kts | 136° |
| 2026-04-30 00:51 | -16.99600 | -46.98679 | 29534 ft | 464 kts | 137° |
| 2026-04-30 00:51 | -17.01969 | -46.96381 | 29781 ft | 466 kts | 137° |
| 2026-04-30 00:52 | -17.04356 | -46.94070 | 30053 ft | 468 kts | 137° |
| 2026-04-30 00:52 | -17.06752 | -46.91750 | 30304 ft | 470 kts | 137° |
| 2026-04-30 00:52 | -17.09159 | -46.89417 | 30541 ft | 471 kts | 137° |
| 2026-04-30 00:52 | -17.11569 | -46.87080 | 30756 ft | 473 kts | 137° |
| 2026-04-30 00:53 | -17.13958 | -46.84762 | 30973 ft | 474 kts | 137° |
| 2026-04-30 00:53 | -17.16406 | -46.82444 | 31267 ft | 474 kts | 141° |
| 2026-04-30 00:53 | -17.19076 | -46.80452 | 31613 ft | 471 kts | 149° |
| 2026-04-30 00:53 | -17.21889 | -46.78714 | 31993 ft | 469 kts | 150° |
| 2026-04-30 00:54 | -17.24723 | -46.77019 | 32316 ft | 469 kts | 151° |
| 2026-04-30 00:54 | -17.27561 | -46.75332 | 32605 ft | 469 kts | 151° |
| 2026-04-30 00:54 | -17.30398 | -46.73636 | 32927 ft | 468 kts | 151° |
| 2026-04-30 00:54 | -17.33212 | -46.71938 | 33295 ft | 466 kts | 151° |
| 2026-04-30 00:55 | -17.36019 | -46.70231 | 33661 ft | 465 kts | 151° |
| 2026-04-30 00:55 | -17.38806 | -46.68526 | 33979 ft | 464 kts | 151° |
| 2026-04-30 00:55 | -17.43442 | -46.65680 | 34426 ft | 463 kts | 151° |
| 2026-04-30 00:56 | -17.46217 | -46.63974 | 34712 ft | 463 kts | 151° |
| 2026-04-30 00:56 | -17.49891 | -46.61715 | 35060 ft | 462 kts | 151° |
| 2026-04-30 00:56 | -17.51764 | -46.60564 | 35237 ft | 462 kts | 151° |
| 2026-04-30 00:56 | -17.55432 | -46.58308 | 35593 ft | 461 kts | 151° |
| 2026-04-30 00:57 | -17.57300 | -46.57159 | 35763 ft | 460 kts | 151° |
| 2026-04-30 00:57 | -17.60960 | -46.54907 | 36083 ft | 460 kts | 151° |
| 2026-04-30 00:57 | -17.62795 | -46.53778 | 36242 ft | 460 kts | 151° |
| 2026-04-30 00:57 | -17.65556 | -46.52079 | 36490 ft | 459 kts | 151° |
| 2026-04-30 00:58 | -17.68311 | -46.50382 | 36723 ft | 459 kts | 151° |
| 2026-04-30 00:58 | -17.71071 | -46.48681 | 36954 ft | 459 kts | 151° |
| 2026-04-30 00:58 | -17.76603 | -46.45272 | 37049 ft | 463 kts | 151° |
| 2026-04-30 00:59 | -17.82157 | -46.41846 | 37046 ft | 461 kts | 151° |
| 2026-04-30 00:59 | -17.87666 | -46.38444 | 37054 ft | 457 kts | 151° |
| 2026-04-30 01:00 | -17.93136 | -46.35065 | 37059 ft | 455 kts | 151° |
| 2026-04-30 01:00 | -17.98595 | -46.31690 | 37066 ft | 454 kts | 151° |
| 2026-04-30 01:01 | -18.04042 | -46.28321 | 37076 ft | 454 kts | 151° |
| 2026-04-30 01:01 | -18.09488 | -46.24949 | 37076 ft | 455 kts | 151° |
| 2026-04-30 01:02 | -18.14958 | -46.21559 | 37078 ft | 457 kts | 151° |
| 2026-04-30 01:02 | -18.20446 | -46.18156 | 37083 ft | 459 kts | 151° |
| 2026-04-30 01:03 | -18.25924 | -46.14756 | 37083 ft | 461 kts | 151° |
| 2026-04-30 01:03 | -18.31453 | -46.11320 | 37085 ft | 462 kts | 151° |
| 2026-04-30 01:04 | -18.37004 | -46.07865 | 37085 ft | 464 kts | 151° |
| 2026-04-30 01:04 | -18.42575 | -46.04396 | 37084 ft | 466 kts | 151° |
| 2026-04-30 01:05 | -18.48160 | -46.00914 | 37083 ft | 466 kts | 151° |
| 2026-04-30 01:05 | -18.53740 | -45.97434 | 37082 ft | 466 kts | 151° |
| 2026-04-30 01:06 | -18.59313 | -45.93955 | 37086 ft | 465 kts | 151° |
| 2026-04-30 01:06 | -18.64883 | -45.90476 | 37080 ft | 464 kts | 151° |
| 2026-04-30 01:07 | -18.70439 | -45.87002 | 37078 ft | 464 kts | 152° |
| 2026-04-30 01:07 | -18.75981 | -45.83534 | 37085 ft | 463 kts | 151° |
| 2026-04-30 01:08 | -18.81485 | -45.80088 | 37083 ft | 462 kts | 151° |
| 2026-04-30 01:08 | -18.87043 | -45.76651 | 37087 ft | 462 kts | 152° |
| 2026-04-30 01:09 | -18.92615 | -45.73278 | 37075 ft | 462 kts | 152° |
| 2026-04-30 01:09 | -18.98194 | -45.69896 | 37082 ft | 462 kts | 152° |
| 2026-04-30 01:10 | -19.03762 | -45.66506 | 37081 ft | 462 kts | 152° |
| 2026-04-30 01:10 | -19.09299 | -45.63128 | 37070 ft | 463 kts | 152° |
| 2026-04-30 01:11 | -19.14881 | -45.59720 | 37077 ft | 464 kts | 152° |
| 2026-04-30 01:11 | -19.20483 | -45.56298 | 37072 ft | 465 kts | 152° |
| 2026-04-30 01:12 | -19.26093 | -45.52867 | 37068 ft | 465 kts | 152° |
| 2026-04-30 01:12 | -19.31711 | -45.49430 | 37072 ft | 466 kts | 152° |
| 2026-04-30 01:13 | -19.37328 | -45.45982 | 37068 ft | 467 kts | 152° |
| 2026-04-30 01:13 | -19.42909 | -45.42542 | 37071 ft | 467 kts | 152° |
| 2026-04-30 01:14 | -19.48527 | -45.39075 | 37072 ft | 468 kts | 152° |
| 2026-04-30 01:14 | -19.54166 | -45.35595 | 37066 ft | 468 kts | 152° |
| 2026-04-30 01:15 | -19.59797 | -45.32117 | 37071 ft | 468 kts | 152° |
| 2026-04-30 01:15 | -19.65433 | -45.28632 | 37074 ft | 468 kts | 152° |
| 2026-04-30 01:16 | -19.71062 | -45.25149 | 37076 ft | 468 kts | 152° |
| 2026-04-30 01:16 | -19.76700 | -45.21658 | 37076 ft | 469 kts | 152° |
| 2026-04-30 01:17 | -19.82299 | -45.18187 | 37080 ft | 469 kts | 152° |
| 2026-04-30 01:17 | -19.87969 | -45.14678 | 37073 ft | 469 kts | 153° |
| 2026-04-30 01:18 | -19.93581 | -45.11239 | 37080 ft | 469 kts | 153° |
| 2026-04-30 01:18 | -19.99235 | -45.07776 | 37083 ft | 468 kts | 153° |
| 2026-04-30 01:19 | -20.04880 | -45.04311 | 37084 ft | 468 kts | 153° |
| 2026-04-30 01:19 | -20.10527 | -45.00839 | 37092 ft | 468 kts | 153° |
| 2026-04-30 01:20 | -20.16172 | -44.97365 | 37089 ft | 469 kts | 153° |
| 2026-04-30 01:20 | -20.21827 | -44.93882 | 37090 ft | 469 kts | 153° |
| 2026-04-30 01:21 | -20.27476 | -44.90399 | 37088 ft | 470 kts | 153° |
| 2026-04-30 01:21 | -20.33138 | -44.86906 | 37097 ft | 470 kts | 153° |
| 2026-04-30 01:22 | -20.38805 | -44.83406 | 37097 ft | 471 kts | 153° |
| 2026-04-30 01:22 | -20.44481 | -44.79897 | 37101 ft | 472 kts | 153° |
| 2026-04-30 01:23 | -20.50158 | -44.76376 | 37103 ft | 472 kts | 152° |
| 2026-04-30 01:23 | -20.55771 | -44.72708 | 37106 ft | 474 kts | 151° |
| 2026-04-30 01:24 | -20.61335 | -44.69012 | 37107 ft | 474 kts | 151° |
| 2026-04-30 01:24 | -20.66955 | -44.65300 | 37108 ft | 474 kts | 151° |
| 2026-04-30 01:25 | -20.72575 | -44.61600 | 37106 ft | 474 kts | 151° |
| 2026-04-30 01:25 | -20.78193 | -44.57898 | 37113 ft | 474 kts | 151° |
| 2026-04-30 01:26 | -20.83839 | -44.54258 | 37115 ft | 473 kts | 153° |
| 2026-04-30 01:26 | -20.89519 | -44.50698 | 37110 ft | 473 kts | 153° |
| 2026-04-30 01:27 | -20.95188 | -44.47122 | 37100 ft | 473 kts | 152° |
| 2026-04-30 01:27 | -21.00850 | -44.43547 | 36563 ft | 478 kts | 153° |
| 2026-04-30 01:28 | -21.03698 | -44.41766 | 36223 ft | 472 kts | 153° |
| 2026-04-30 01:28 | -21.06519 | -44.40002 | 35795 ft | 469 kts | 153° |
| 2026-04-30 01:28 | -21.09331 | -44.38238 | 35391 ft | 465 kts | 152° |
| 2026-04-30 01:28 | -21.12113 | -44.36475 | 34987 ft | 463 kts | 152° |
| 2026-04-30 01:29 | -21.14876 | -44.34716 | 34576 ft | 460 kts | 152° |
| 2026-04-30 01:29 | -21.17623 | -44.32966 | 34155 ft | 459 kts | 152° |
| 2026-04-30 01:29 | -21.20356 | -44.31227 | 33710 ft | 456 kts | 152° |
| 2026-04-30 01:29 | -21.23080 | -44.29495 | 33281 ft | 453 kts | 152° |
| 2026-04-30 01:30 | -21.25787 | -44.27765 | 32868 ft | 451 kts | 152° |
| 2026-04-30 01:30 | -21.28467 | -44.26037 | 32468 ft | 448 kts | 152° |
| 2026-04-30 01:30 | -21.31122 | -44.24318 | 32076 ft | 445 kts | 152° |
| 2026-04-30 01:30 | -21.33731 | -44.22629 | 31694 ft | 442 kts | 152° |
| 2026-04-30 01:31 | -21.36361 | -44.20926 | 31307 ft | 440 kts | 152° |
| 2026-04-30 01:31 | -21.38974 | -44.19235 | 30943 ft | 437 kts | 152° |
| 2026-04-30 01:31 | -21.41583 | -44.17548 | 30551 ft | 435 kts | 152° |
| 2026-04-30 01:31 | -21.44175 | -44.15871 | 30153 ft | 434 kts | 151° |
| 2026-04-30 01:32 | -21.46757 | -44.14200 | 29713 ft | 432 kts | 152° |
| 2026-04-30 01:32 | -21.49317 | -44.12544 | 29296 ft | 429 kts | 151° |
| 2026-04-30 01:32 | -21.51865 | -44.10896 | 28890 ft | 425 kts | 151° |
| 2026-04-30 01:32 | -21.54400 | -44.09256 | 28490 ft | 423 kts | 151° |
| 2026-04-30 01:33 | -21.56907 | -44.07633 | 28098 ft | 420 kts | 152° |
| 2026-04-30 01:33 | -21.59448 | -44.06131 | 27712 ft | 415 kts | 156° |
| 2026-04-30 01:33 | -21.62015 | -44.04801 | 27328 ft | 412 kts | 158° |
| 2026-04-30 01:33 | -21.64610 | -44.03518 | 26954 ft | 410 kts | 158° |
| 2026-04-30 01:34 | -21.67197 | -44.02241 | 26577 ft | 408 kts | 158° |
| 2026-04-30 01:34 | -21.69765 | -44.00954 | 26203 ft | 406 kts | 158° |
| 2026-04-30 01:34 | -21.72317 | -43.99658 | 25826 ft | 404 kts | 157° |
| 2026-04-30 01:34 | -21.74849 | -43.98360 | 25454 ft | 403 kts | 157° |
| 2026-04-30 01:35 | -21.77386 | -43.97054 | 25066 ft | 403 kts | 156° |
| 2026-04-30 01:35 | -21.79910 | -43.95753 | 24669 ft | 402 kts | 157° |
| 2026-04-30 01:35 | -21.82434 | -43.94453 | 24304 ft | 401 kts | 157° |
| 2026-04-30 01:35 | -21.84949 | -43.93157 | 23920 ft | 401 kts | 157° |
| 2026-04-30 01:36 | -21.87461 | -43.91862 | 23544 ft | 399 kts | 157° |
| 2026-04-30 01:36 | -21.89971 | -43.90568 | 23115 ft | 398 kts | 156° |
| 2026-04-30 01:36 | -21.92437 | -43.89297 | 22723 ft | 396 kts | 157° |
| 2026-04-30 01:36 | -21.94915 | -43.88018 | 22339 ft | 394 kts | 157° |
| 2026-04-30 01:37 | -21.97382 | -43.86744 | 21964 ft | 391 kts | 157° |
| 2026-04-30 01:37 | -21.99828 | -43.85480 | 21593 ft | 389 kts | 157° |
| 2026-04-30 01:37 | -22.02269 | -43.84219 | 21219 ft | 387 kts | 157° |
| 2026-04-30 01:37 | -22.04689 | -43.82968 | 20856 ft | 384 kts | 156° |
| 2026-04-30 01:38 | -22.07092 | -43.81726 | 20488 ft | 383 kts | 156° |
| 2026-04-30 01:38 | -22.09488 | -43.80486 | 20133 ft | 381 kts | 156° |
| 2026-04-30 01:38 | -22.11874 | -43.79252 | 19757 ft | 379 kts | 156° |
| 2026-04-30 01:38 | -22.14249 | -43.78022 | 19391 ft | 378 kts | 156° |
| 2026-04-30 01:39 | -22.16612 | -43.76798 | 19010 ft | 376 kts | 156° |
| 2026-04-30 01:39 | -22.18932 | -43.75596 | 18659 ft | 374 kts | 156° |
| 2026-04-30 01:39 | -22.21275 | -43.74382 | 18277 ft | 373 kts | 156° |
| 2026-04-30 01:39 | -22.23611 | -43.73171 | 17870 ft | 371 kts | 156° |
| 2026-04-30 01:40 | -22.25932 | -43.71968 | 17488 ft | 369 kts | 156° |
| 2026-04-30 01:40 | -22.28236 | -43.70772 | 17123 ft | 366 kts | 156° |
| 2026-04-30 01:40 | -22.30524 | -43.69584 | 16759 ft | 364 kts | 156° |
| 2026-04-30 01:40 | -22.32795 | -43.68405 | 16395 ft | 361 kts | 156° |
| 2026-04-30 01:41 | -22.35049 | -43.67234 | 16047 ft | 358 kts | 156° |
| 2026-04-30 01:41 | -22.37287 | -43.66071 | 15695 ft | 355 kts | 156° |
| 2026-04-30 01:41 | -22.39507 | -43.64917 | 15333 ft | 353 kts | 155° |
| 2026-04-30 01:41 | -22.41719 | -43.63767 | 14995 ft | 351 kts | 155° |
| 2026-04-30 01:42 | -22.43911 | -43.62627 | 14639 ft | 346 kts | 155° |
| 2026-04-30 01:42 | -22.46049 | -43.61489 | 14286 ft | 337 kts | 150° |
| 2026-04-30 01:42 | -22.47808 | -43.59883 | 14007 ft | 328 kts | 129° |
| 2026-04-30 01:42 | -22.49203 | -43.57956 | 13719 ft | 325 kts | 126° |
| 2026-04-30 01:43 | -22.50547 | -43.55990 | 13354 ft | 324 kts | 126° |
| 2026-04-30 01:43 | -22.51863 | -43.54050 | 13027 ft | 323 kts | 126° |
| 2026-04-30 01:43 | -22.53194 | -43.52099 | 12686 ft | 321 kts | 126° |
| 2026-04-30 01:43 | -22.54521 | -43.50167 | 12345 ft | 320 kts | 126° |
| 2026-04-30 01:44 | -22.55422 | -43.48862 | 12118 ft | 319 kts | 126° |
| 2026-04-30 01:44 | -22.56750 | -43.46943 | 11774 ft | 319 kts | 127° |
| 2026-04-30 01:44 | -22.58507 | -43.44409 | 11304 ft | 317 kts | 127° |
| 2026-04-30 01:44 | -22.59402 | -43.43119 | 11100 ft | 316 kts | 127° |
| 2026-04-30 01:45 | -22.60716 | -43.41225 | 10766 ft | 314 kts | 127° |
| 2026-04-30 01:45 | -22.62013 | -43.39356 | 10441 ft | 313 kts | 127° |
| 2026-04-30 01:45 | -22.63313 | -43.37483 | 10226 ft | 307 kts | 127° |
| 2026-04-30 01:45 | -22.64542 | -43.35632 | 10077 ft | 299 kts | 117° |
| 2026-04-30 01:46 | -22.65040 | -43.33509 | 9999 ft | 287 kts | 92° |
| 2026-04-30 01:46 | -22.65104 | -43.31391 | 9724 ft | 279 kts | 91° |
| 2026-04-30 01:46 | -22.65155 | -43.29285 | 9185 ft | 280 kts | 91° |
| 2026-04-30 01:46 | -22.65211 | -43.27187 | 8733 ft | 278 kts | 91° |
| 2026-04-30 01:47 | -22.65273 | -43.25104 | 8299 ft | 275 kts | 91° |
| 2026-04-30 01:47 | -22.65339 | -43.23043 | 7816 ft | 275 kts | 91° |
| 2026-04-30 01:47 | -22.65410 | -43.20938 | 7102 ft | 283 kts | 91° |
| 2026-04-30 01:47 | -22.65484 | -43.18792 | 6538 ft | 285 kts | 92° |
| 2026-04-30 01:48 | -22.65560 | -43.16659 | 6121 ft | 281 kts | 91° |
| 2026-04-30 01:48 | -22.65634 | -43.14575 | 5787 ft | 273 kts | 91° |
| 2026-04-30 01:48 | -22.65705 | -43.12578 | 5505 ft | 264 kts | 91° |
| 2026-04-30 01:48 | -22.65774 | -43.10616 | 5223 ft | 257 kts | 91° |
| 2026-04-30 01:49 | -22.65960 | -43.08747 | 5067 ft | 244 kts | 108° |
| 2026-04-30 01:49 | -22.66840 | -43.07240 | 4871 ft | 235 kts | 136° |
| 2026-04-30 01:49 | -22.68194 | -43.06318 | 4554 ft | 227 kts | 158° |
| 2026-04-30 01:49 | -22.69673 | -43.05818 | 4247 ft | 219 kts | 164° |
| 2026-04-30 01:50 | -22.71119 | -43.05402 | 3950 ft | 210 kts | 165° |
| 2026-04-30 01:50 | -22.72487 | -43.05028 | 3653 ft | 196 kts | 171° |
| 2026-04-30 01:50 | -22.73782 | -43.05185 | 3359 ft | 182 kts | 204° |
| 2026-04-30 01:50 | -22.74611 | -43.06070 | 3136 ft | 163 kts | 244° |
| 2026-04-30 01:51 | -22.75130 | -43.07157 | 2873 ft | 162 kts | 245° |
| 2026-04-30 01:51 | -22.75575 | -43.08271 | 2527 ft | 160 kts | 247° |
| 2026-04-30 01:51 | -22.75980 | -43.09362 | 2316 ft | 154 kts | 250° |
| 2026-04-30 01:51 | -22.76314 | -43.10468 | 2118 ft | 156 kts | 253° |
| 2026-04-30 01:52 | -22.76615 | -43.11593 | 1915 ft | 155 kts | 254° |
| 2026-04-30 01:52 | -22.76903 | -43.12709 | 1707 ft | 153 kts | 255° |
| 2026-04-30 01:52 | -22.77187 | -43.13821 | 1512 ft | 153 kts | 254° |
| 2026-04-30 01:52 | -22.77470 | -43.14931 | 1314 ft | 153 kts | 254° |
| 2026-04-30 01:53 | -22.77748 | -43.16020 | 1133 ft | 151 kts | 253° |
| 2026-04-30 01:53 | -22.78030 | -43.17121 | 940 ft | 151 kts | 254° |
| 2026-04-30 01:53 | -22.78309 | -43.18211 | 741 ft | 149 kts | 253° |
| 2026-04-30 01:53 | -22.78581 | -43.19275 | 537 ft | 145 kts | 253° |
| 2026-04-30 01:54 | -22.78848 | -43.20321 | 357 ft | 143 kts | 253° |
| 2026-04-30 01:54 | -22.79114 | -43.21359 | 156 ft | 143 kts | 253° |
| 2026-04-30 01:54 | -22.79378 | -43.22381 | 36 ft | 133 kts | 253° |
| 2026-04-30 01:54 | -22.79570 | -43.23129 | 34 ft | 74 kts | 254° |
| 2026-04-30 01:55 | -22.79699 | -43.23629 | 26 ft | 59 kts | 254° |
| 2026-04-30 01:55 | -22.79807 | -43.23915 | 27 ft | 24 kts | 236° |
| 2026-04-30 01:55 | -22.79875 | -43.24022 | 27 ft | 16 kts | 235° |
| 2026-04-30 01:55 | -22.79930 | -43.24107 | 29 ft | 13 kts | 235° |
| 2026-04-30 01:56 | -22.79981 | -43.24184 | 30 ft | 12 kts | 234° |
| 2026-04-30 01:56 | -22.80031 | -43.24260 | 28 ft | 12 kts | 234° |
| 2026-04-30 01:56 | -22.80080 | -43.24332 | 28 ft | 12 kts | 234° |
| 2026-04-30 01:56 | -22.80129 | -43.24404 | 28 ft | 12 kts | 234° |
| 2026-04-30 01:57 | -22.80161 | -43.24499 | 27 ft | 15 kts | 255° |
| 2026-04-30 01:57 | -22.80193 | -43.24625 | 26 ft | 19 kts | 253° |
| 2026-04-30 01:57 | -22.80232 | -43.24769 | 27 ft | 20 kts | 254° |
| 2026-04-30 01:57 | -22.80268 | -43.24912 | 26 ft | 19 kts | 255° |
| 2026-04-30 01:58 | -22.80304 | -43.25050 | 26 ft | 19 kts | 254° |
| 2026-04-30 01:58 | -22.80341 | -43.25183 | 26 ft | 18 kts | 252° |
| 2026-04-30 01:58 | -22.80388 | -43.25307 | 27 ft | 18 kts | 242° |
| 2026-04-30 01:58 | -22.80453 | -43.25415 | 28 ft | 17 kts | 230° |
| 2026-04-30 01:59 | -22.80633 | -43.25582 | 27 ft | 18 kts | 215° |
| 2026-04-30 01:59 | -22.80736 | -43.25662 | 28 ft | 18 kts | 215° |
| 2026-04-30 01:59 | -22.80831 | -43.25664 | 27 ft | 15 kts | 133° |
| 2026-04-30 02:00 | -22.80892 | -43.25555 | 27 ft | 17 kts | 115° |
| 2026-04-30 02:00 | -22.80942 | -43.25439 | 23 ft | 19 kts | 115° |
| 2026-04-30 02:00 | -22.81039 | -43.25385 | 21 ft | 17 kts | 183° |
| 2026-04-30 02:00 | -22.81112 | -43.25360 | 21 ft | 7 kts | 97° |
| 2026-04-30 02:01 | -22.81104 | -43.25313 | 21 ft | 3 kts | 78° |
| 2026-04-30 02:01 | -22.81104 | -43.25311 | 21 ft | 0 kts | 78° |